sensor_id;sensor_type;location;lat;lon;timestamp;pressure;altitude;pressure_sealevel;temperature;humidity
35910;BME280;22004;49.120;-0.200;2023-03-19T00:02:12;101099.91;;;11.68;76.76
35910;BME280;22004;49.120;-0.200;2023-03-19T00:04:38;101102.19;;;11.79;76.45
35910;BME280;22004;49.120;-0.200;2023-03-19T00:07:03;101098.81;;;11.85;76.31
35910;BME280;22004;49.120;-0.200;2023-03-19T00:09:29;101099.06;;;11.68;76.53
35910;BME280;22004;49.120;-0.200;2023-03-19T00:11:54;101102.28;;;11.63;77.11
35910;BME280;22004;49.120;-0.200;2023-03-19T00:14:20;101101.03;;;11.51;76.63
35910;BME280;22004;49.120;-0.200;2023-03-19T00:16:45;101114.31;;;11.75;76.40
35910;BME280;22004;49.120;-0.200;2023-03-19T00:19:11;101112.69;;;11.66;75.87
35910;BME280;22004;49.120;-0.200;2023-03-19T00:21:36;101117.13;;;11.59;76.67
35910;BME280;22004;49.120;-0.200;2023-03-19T00:24:01;101115.41;;;11.35;77.81
35910;BME280;22004;49.120;-0.200;2023-03-19T00:26:29;101109.97;;;11.43;76.34
35910;BME280;22004;49.120;-0.200;2023-03-19T00:28:55;101114.44;;;11.59;76.64
35910;BME280;22004;49.120;-0.200;2023-03-19T00:31:21;101111.16;;;11.49;76.84
35910;BME280;22004;49.120;-0.200;2023-03-19T00:33:47;101120.66;;;11.59;75.74
35910;BME280;22004;49.120;-0.200;2023-03-19T00:36:12;101130.13;;;11.47;76.94
35910;BME280;22004;49.120;-0.200;2023-03-19T00:38:40;101140.00;;;10.76;76.62
35910;BME280;22004;49.120;-0.200;2023-03-19T00:41:05;101146.56;;;11.21;76.97
35910;BME280;22004;49.120;-0.200;2023-03-19T00:43:31;101146.31;;;11.39;76.38
35910;BME280;22004;49.120;-0.200;2023-03-19T00:45:57;101144.84;;;11.28;77.27
35910;BME280;22004;49.120;-0.200;2023-03-19T00:48:23;101139.63;;;10.87;75.80
35910;BME280;22004;49.120;-0.200;2023-03-19T00:50:49;101149.34;;;10.88;77.61
35910;BME280;22004;49.120;-0.200;2023-03-19T00:53:15;101147.84;;;10.94;77.24
35910;BME280;22004;49.120;-0.200;2023-03-19T00:55:40;101151.75;;;10.75;76.77
35910;BME280;22004;49.120;-0.200;2023-03-19T00:58:06;101159.97;;;10.82;77.49
35910;BME280;22004;49.120;-0.200;2023-03-19T01:00:32;101152.22;;;10.79;76.52
35910;BME280;22004;49.120;-0.200;2023-03-19T01:02:59;101150.53;;;10.94;77.25
35910;BME280;22004;49.120;-0.200;2023-03-19T01:05:24;101154.72;;;10.97;77.38
35910;BME280;22004;49.120;-0.200;2023-03-19T01:07:49;101158.78;;;11.24;76.15
35910;BME280;22004;49.120;-0.200;2023-03-19T01:10:18;101148.63;;;11.11;76.97
35910;BME280;22004;49.120;-0.200;2023-03-19T01:12:44;101153.81;;;11.12;77.14
35910;BME280;22004;49.120;-0.200;2023-03-19T01:15:09;101159.63;;;10.77;76.68
35910;BME280;22004;49.120;-0.200;2023-03-19T01:17:36;101164.41;;;11.14;74.92
35910;BME280;22004;49.120;-0.200;2023-03-19T01:20:01;101165.97;;;10.84;77.08
35910;BME280;22004;49.120;-0.200;2023-03-19T01:22:26;101160.00;;;11.21;75.98
35910;BME280;22004;49.120;-0.200;2023-03-19T01:24:52;101145.56;;;10.67;77.13
35910;BME280;22004;49.120;-0.200;2023-03-19T01:27:17;101156.38;;;10.98;77.10
35910;BME280;22004;49.120;-0.200;2023-03-19T01:29:43;101151.53;;;10.93;74.90
35910;BME280;22004;49.120;-0.200;2023-03-19T01:32:08;101147.19;;;10.84;77.20
35910;BME280;22004;49.120;-0.200;2023-03-19T01:34:34;101150.84;;;10.99;76.55
35910;BME280;22004;49.120;-0.200;2023-03-19T01:36:59;101161.44;;;10.93;76.93
35910;BME280;22004;49.120;-0.200;2023-03-19T01:39:25;101155.53;;;11.05;76.11
35910;BME280;22004;49.120;-0.200;2023-03-19T01:41:51;101142.69;;;10.84;76.92
35910;BME280;22004;49.120;-0.200;2023-03-19T01:44:31;101139.09;;;11.00;76.59
35910;BME280;22004;49.120;-0.200;2023-03-19T01:47:00;101144.03;;;10.72;74.77
35910;BME280;22004;49.120;-0.200;2023-03-19T01:49:28;101142.78;;;10.35;77.51
35910;BME280;22004;49.120;-0.200;2023-03-19T01:51:54;101148.38;;;10.90;76.85
35910;BME280;22004;49.120;-0.200;2023-03-19T01:54:23;101143.44;;;11.09;75.01
35910;BME280;22004;49.120;-0.200;2023-03-19T01:56:54;101151.75;;;10.75;75.27
35910;BME280;22004;49.120;-0.200;2023-03-19T01:59:26;101165.84;;;10.85;76.10
35910;BME280;22004;49.120;-0.200;2023-03-19T02:02:06;101168.53;;;10.77;76.10
35910;BME280;22004;49.120;-0.200;2023-03-19T02:04:37;101167.44;;;11.03;75.82
35910;BME280;22004;49.120;-0.200;2023-03-19T02:07:03;101172.53;;;10.90;76.74
35910;BME280;22004;49.120;-0.200;2023-03-19T02:09:30;101175.06;;;10.91;75.80
35910;BME280;22004;49.120;-0.200;2023-03-19T02:11:56;101180.09;;;10.86;76.58
35910;BME280;22004;49.120;-0.200;2023-03-19T02:14:22;101177.50;;;10.45;77.07
35910;BME280;22004;49.120;-0.200;2023-03-19T02:16:47;101177.78;;;10.58;77.79
35910;BME280;22004;49.120;-0.200;2023-03-19T02:19:16;101190.06;;;10.69;76.55
35910;BME280;22004;49.120;-0.200;2023-03-19T02:21:46;101182.84;;;10.29;78.84
35910;BME280;22004;49.120;-0.200;2023-03-19T02:24:16;101184.50;;;10.71;77.72
35910;BME280;22004;49.120;-0.200;2023-03-19T02:26:44;101173.97;;;11.08;75.59
35910;BME280;22004;49.120;-0.200;2023-03-19T02:29:11;101171.44;;;10.51;78.17
35910;BME280;22004;49.120;-0.200;2023-03-19T02:31:37;101177.13;;;10.56;77.82
35910;BME280;22004;49.120;-0.200;2023-03-19T02:34:05;101164.38;;;10.67;77.76
35910;BME280;22004;49.120;-0.200;2023-03-19T02:36:58;101167.75;;;10.44;78.26
35910;BME280;22004;49.120;-0.200;2023-03-19T02:42:10;101163.38;;;10.51;78.06
35910;BME280;22004;49.120;-0.200;2023-03-19T02:44:36;101147.78;;;10.47;78.81
35910;BME280;22004;49.120;-0.200;2023-03-19T02:47:02;101150.28;;;10.48;78.25
35910;BME280;22004;49.120;-0.200;2023-03-19T02:49:28;101149.16;;;10.34;78.77
35910;BME280;22004;49.120;-0.200;2023-03-19T02:51:53;101146.72;;;10.72;77.49
35910;BME280;22004;49.120;-0.200;2023-03-19T02:54:18;101151.94;;;10.66;77.85
35910;BME280;22004;49.120;-0.200;2023-03-19T02:56:44;101163.19;;;10.61;78.04
35910;BME280;22004;49.120;-0.200;2023-03-19T02:59:10;101171.91;;;10.79;77.49
35910;BME280;22004;49.120;-0.200;2023-03-19T03:01:36;101177.31;;;10.55;78.20
35910;BME280;22004;49.120;-0.200;2023-03-19T03:04:01;101174.59;;;10.79;78.18
35910;BME280;22004;49.120;-0.200;2023-03-19T03:06:27;101180.25;;;10.93;77.52
35910;BME280;22004;49.120;-0.200;2023-03-19T03:08:52;101186.63;;;11.00;77.18
35910;BME280;22004;49.120;-0.200;2023-03-19T03:11:18;101179.75;;;10.89;77.67
35910;BME280;22004;49.120;-0.200;2023-03-19T03:13:44;101181.84;;;11.18;76.65
35910;BME280;22004;49.120;-0.200;2023-03-19T03:16:10;101183.63;;;10.86;77.83
35910;BME280;22004;49.120;-0.200;2023-03-19T03:18:35;101176.00;;;11.06;76.72
35910;BME280;22004;49.120;-0.200;2023-03-19T03:21:00;101177.94;;;11.29;76.46
35910;BME280;22004;49.120;-0.200;2023-03-19T03:23:26;101175.47;;;11.19;76.42
35910;BME280;22004;49.120;-0.200;2023-03-19T03:25:51;101168.19;;;11.28;76.48
35910;BME280;22004;49.120;-0.200;2023-03-19T03:28:17;101173.72;;;11.34;75.91
35910;BME280;22004;49.120;-0.200;2023-03-19T03:30:43;101170.94;;;11.11;76.38
35910;BME280;22004;49.120;-0.200;2023-03-19T03:33:09;101169.34;;;11.33;76.20
35910;BME280;22004;49.120;-0.200;2023-03-19T03:35:34;101170.03;;;11.27;76.16
35910;BME280;22004;49.120;-0.200;2023-03-19T03:38:00;101160.63;;;11.31;75.78
35910;BME280;22004;49.120;-0.200;2023-03-19T03:40:25;101163.34;;;11.23;76.53
35910;BME280;22004;49.120;-0.200;2023-03-19T03:42:51;101162.59;;;11.37;75.69
35910;BME280;22004;49.120;-0.200;2023-03-19T03:45:16;101160.84;;;11.22;76.61
35910;BME280;22004;49.120;-0.200;2023-03-19T03:47:42;101161.81;;;11.29;76.50
35910;BME280;22004;49.120;-0.200;2023-03-19T03:50:08;101167.44;;;11.11;77.43
35910;BME280;22004;49.120;-0.200;2023-03-19T03:52:35;101158.56;;;11.42;76.34
35910;BME280;22004;49.120;-0.200;2023-03-19T03:55:01;101157.91;;;11.39;76.06
35910;BME280;22004;49.120;-0.200;2023-03-19T03:57:26;101159.50;;;10.70;78.79
35910;BME280;22004;49.120;-0.200;2023-03-19T03:59:52;101156.56;;;10.96;77.87
35910;BME280;22004;49.120;-0.200;2023-03-19T04:02:18;101154.06;;;11.34;76.58
35910;BME280;22004;49.120;-0.200;2023-03-19T04:04:44;101159.66;;;11.55;75.85
35910;BME280;22004;49.120;-0.200;2023-03-19T04:07:10;101159.19;;;11.44;76.04
35910;BME280;22004;49.120;-0.200;2023-03-19T04:09:35;101156.66;;;11.50;75.64
35910;BME280;22004;49.120;-0.200;2023-03-19T04:12:01;101154.59;;;11.60;75.25
35910;BME280;22004;49.120;-0.200;2023-03-19T04:14:27;101154.66;;;11.13;nan
35910;BME280;22004;49.120;-0.200;2023-03-19T04:16:52;101155.97;;;11.17;77.39
35910;BME280;22004;49.120;-0.200;2023-03-19T04:19:18;101161.16;;;11.27;76.90
35910;BME280;22004;49.120;-0.200;2023-03-19T04:21:44;101158.22;;;11.05;77.81
35910;BME280;22004;49.120;-0.200;2023-03-19T04:24:09;101160.31;;;11.26;77.37
35910;BME280;22004;49.120;-0.200;2023-03-19T04:26:36;101171.88;;;11.35;77.03
35910;BME280;22004;49.120;-0.200;2023-03-19T04:29:02;101179.78;;;11.28;77.21
35910;BME280;22004;49.120;-0.200;2023-03-19T04:31:27;101183.75;;;10.93;78.39
35910;BME280;22004;49.120;-0.200;2023-03-19T04:33:53;101181.69;;;11.20;77.46
35910;BME280;22004;49.120;-0.200;2023-03-19T04:36:18;101183.25;;;10.98;78.62
35910;BME280;22004;49.120;-0.200;2023-03-19T04:38:45;101195.88;;;11.36;76.96
35910;BME280;22004;49.120;-0.200;2023-03-19T04:41:12;101194.31;;;11.11;77.77
35910;BME280;22004;49.120;-0.200;2023-03-19T04:43:38;101193.22;;;11.28;77.51
35910;BME280;22004;49.120;-0.200;2023-03-19T04:46:04;101194.34;;;11.42;77.16
35910;BME280;22004;49.120;-0.200;2023-03-19T04:48:31;101198.84;;;11.50;76.43
35910;BME280;22004;49.120;-0.200;2023-03-19T04:50:56;101205.28;;;11.41;76.88
35910;BME280;22004;49.120;-0.200;2023-03-19T04:53:22;101215.41;;;11.30;77.11
35910;BME280;22004;49.120;-0.200;2023-03-19T04:55:48;101214.03;;;11.34;77.07
35910;BME280;22004;49.120;-0.200;2023-03-19T04:58:14;101214.38;;;11.31;77.37
35910;BME280;22004;49.120;-0.200;2023-03-19T05:00:39;101217.78;;;11.25;77.45
35910;BME280;22004;49.120;-0.200;2023-03-19T05:03:05;101213.03;;;11.35;77.46
35910;BME280;22004;49.120;-0.200;2023-03-19T05:05:31;101221.78;;;11.29;77.60
35910;BME280;22004;49.120;-0.200;2023-03-19T05:07:56;101221.09;;;11.27;77.77
35910;BME280;22004;49.120;-0.200;2023-03-19T05:10:22;101219.47;;;11.18;78.16
35910;BME280;22004;49.120;-0.200;2023-03-19T05:12:47;101224.31;;;11.23;77.94
35910;BME280;22004;49.120;-0.200;2023-03-19T05:15:14;101222.44;;;11.31;77.63
35910;BME280;22004;49.120;-0.200;2023-03-19T05:17:39;101236.09;;;11.13;78.49
35910;BME280;22004;49.120;-0.200;2023-03-19T05:20:06;101250.34;;;11.30;78.07
35910;BME280;22004;49.120;-0.200;2023-03-19T05:22:31;101259.13;;;11.16;78.68
35910;BME280;22004;49.120;-0.200;2023-03-19T05:24:57;101269.72;;;11.01;79.62
35910;BME280;22004;49.120;-0.200;2023-03-19T05:27:22;101271.59;;;10.84;78.71
35910;BME280;22004;49.120;-0.200;2023-03-19T05:29:47;101278.25;;;10.23;80.18
35910;BME280;22004;49.120;-0.200;2023-03-19T05:32:13;101278.31;;;10.80;79.63
35910;BME280;22004;49.120;-0.200;2023-03-19T05:34:38;101277.47;;;10.64;79.75
35910;BME280;22004;49.120;-0.200;2023-03-19T05:37:04;101288.19;;;10.64;79.76
35910;BME280;22004;49.120;-0.200;2023-03-19T05:39:29;101293.25;;;10.58;79.82
35910;BME280;22004;49.120;-0.200;2023-03-19T05:41:55;101295.44;;;10.55;80.07
35910;BME280;22004;49.120;-0.200;2023-03-19T05:44:20;101289.16;;;10.22;79.54
35910;BME280;22004;49.120;-0.200;2023-03-19T05:46:46;101298.97;;;10.55;78.44
35910;BME280;22004;49.120;-0.200;2023-03-19T05:49:12;101310.69;;;10.63;77.81
35910;BME280;22004;49.120;-0.200;2023-03-19T05:51:38;101315.53;;;10.43;78.63
35910;BME280;22004;49.120;-0.200;2023-03-19T05:54:03;101314.72;;;10.42;78.39
35910;BME280;22004;49.120;-0.200;2023-03-19T05:56:29;101322.09;;;10.40;77.86
35910;BME280;22004;49.120;-0.200;2023-03-19T05:58:54;101334.97;;;10.28;78.46
35910;BME280;22004;49.120;-0.200;2023-03-19T06:01:21;101331.66;;;10.43;77.61
35910;BME280;22004;49.120;-0.200;2023-03-19T06:03:46;101332.88;;;10.65;77.99
35910;BME280;22004;49.120;-0.200;2023-03-19T06:06:12;101345.91;;;10.35;77.44
35910;BME280;22004;49.120;-0.200;2023-03-19T06:08:37;101343.63;;;10.65;77.58
35910;BME280;22004;49.120;-0.200;2023-03-19T06:11:03;101332.00;;;10.56;77.04
35910;BME280;22004;49.120;-0.200;2023-03-19T06:13:29;101341.56;;;10.58;75.93
35910;BME280;22004;49.120;-0.200;2023-03-19T06:15:54;101344.63;;;10.80;76.59
35910;BME280;22004;49.120;-0.200;2023-03-19T06:18:20;101335.84;;;10.53;76.00
35910;BME280;22004;49.120;-0.200;2023-03-19T06:20:46;101343.78;;;10.79;76.04
35910;BME280;22004;49.120;-0.200;2023-03-19T06:23:11;101351.84;;;10.71;75.62
35910;BME280;22004;49.120;-0.200;2023-03-19T06:25:36;101356.69;;;10.09;77.93
35910;BME280;22004;49.120;-0.200;2023-03-19T06:28:03;101361.53;;;10.56;76.75
35910;BME280;22004;49.120;-0.200;2023-03-19T06:30:28;101366.34;;;9.86;77.08
35910;BME280;22004;49.120;-0.200;2023-03-19T06:32:54;101375.16;;;10.63;76.49
35910;BME280;22004;49.120;-0.200;2023-03-19T06:35:19;101369.91;;;10.53;76.76
35910;BME280;22004;49.120;-0.200;2023-03-19T06:37:45;101380.72;;;10.69;76.11
35910;BME280;22004;49.120;-0.200;2023-03-19T06:40:10;101387.69;;;10.46;76.20
35910;BME280;22004;49.120;-0.200;2023-03-19T06:42:36;101387.16;;;10.26;74.38
35910;BME280;22004;49.120;-0.200;2023-03-19T06:45:02;101393.31;;;10.85;76.17
35910;BME280;22004;49.120;-0.200;2023-03-19T06:47:27;101404.00;;;10.60;75.07
35910;BME280;22004;49.120;-0.200;2023-03-19T06:49:52;101405.56;;;10.79;76.09
35910;BME280;22004;49.120;-0.200;2023-03-19T06:52:18;101409.34;;;10.52;76.46
35910;BME280;22004;49.120;-0.200;2023-03-19T06:54:43;101409.22;;;10.62;76.35
35910;BME280;22004;49.120;-0.200;2023-03-19T06:57:09;101416.81;;;10.75;75.03
35910;BME280;22004;49.120;-0.200;2023-03-19T06:59:34;101416.81;;;10.75;75.59
35910;BME280;22004;49.120;-0.200;2023-03-19T07:02:00;101421.16;;;10.76;75.67
35910;BME280;22004;49.120;-0.200;2023-03-19T07:04:26;101426.44;;;10.43;76.19
35910;BME280;22004;49.120;-0.200;2023-03-19T07:06:51;101425.59;;;10.43;75.81
35910;BME280;22004;49.120;-0.200;2023-03-19T07:09:17;101427.00;;;10.55;75.41
35910;BME280;22004;49.120;-0.200;2023-03-19T07:11:42;101420.53;;;10.31;76.05
35910;BME280;22004;49.120;-0.200;2023-03-19T07:14:07;101422.56;;;10.29;75.06
35910;BME280;22004;49.120;-0.200;2023-03-19T07:16:33;101431.50;;;10.46;75.71
35910;BME280;22004;49.120;-0.200;2023-03-19T07:18:58;101433.69;;;10.51;75.73
35910;BME280;22004;49.120;-0.200;2023-03-19T07:21:23;101439.75;;;10.61;75.04
35910;BME280;22004;49.120;-0.200;2023-03-19T07:23:49;101435.78;;;10.98;74.45
35910;BME280;22004;49.120;-0.200;2023-03-19T07:26:15;101443.25;;;10.53;74.64
35910;BME280;22004;49.120;-0.200;2023-03-19T07:28:41;101449.31;;;10.64;75.50
35910;BME280;22004;49.120;-0.200;2023-03-19T07:31:06;101453.38;;;10.84;73.91
35910;BME280;22004;49.120;-0.200;2023-03-19T07:33:31;101464.53;;;11.05;73.94
35910;BME280;22004;49.120;-0.200;2023-03-19T07:35:57;101462.44;;;10.67;75.59
35910;BME280;22004;49.120;-0.200;2023-03-19T07:38:22;101466.69;;;11.67;70.93
35910;BME280;22004;49.120;-0.200;2023-03-19T07:40:49;101457.69;;;13.92;63.78
35910;BME280;22004;49.120;-0.200;2023-03-19T07:43:14;101465.34;;;11.87;69.43
35910;BME280;22004;49.120;-0.200;2023-03-19T07:45:39;101478.31;;;11.76;70.60
35910;BME280;22004;49.120;-0.200;2023-03-19T07:48:05;101471.88;;;13.11;65.75
35910;BME280;22004;49.120;-0.200;2023-03-19T07:50:31;101484.94;;;12.68;67.65
35910;BME280;22004;49.120;-0.200;2023-03-19T07:52:57;101491.25;;;11.56;69.53
35910;BME280;22004;49.120;-0.200;2023-03-19T07:55:22;101483.81;;;10.84;72.20
35910;BME280;22004;49.120;-0.200;2023-03-19T07:57:48;101488.72;;;12.42;66.66
35910;BME280;22004;49.120;-0.200;2023-03-19T08:00:14;101498.50;;;11.39;70.23
35910;BME280;22004;49.120;-0.200;2023-03-19T08:02:40;101508.19;;;10.99;72.82
35910;BME280;22004;49.120;-0.200;2023-03-19T08:05:07;101521.28;;;13.03;67.06
35910;BME280;22004;49.120;-0.200;2023-03-19T08:07:34;101511.41;;;11.68;70.87
35910;BME280;22004;49.120;-0.200;2023-03-19T08:09:59;101510.44;;;11.45;71.91
35910;BME280;22004;49.120;-0.200;2023-03-19T08:12:24;101503.34;;;11.35;72.42
35910;BME280;22004;49.120;-0.200;2023-03-19T08:14:50;101512.38;;;11.02;73.00
35910;BME280;22004;49.120;-0.200;2023-03-19T08:17:15;101510.72;;;11.17;72.51
35910;BME280;22004;49.120;-0.200;2023-03-19T08:19:41;101509.22;;;11.31;70.30
35910;BME280;22004;49.120;-0.200;2023-03-19T08:22:07;101511.25;;;11.37;72.02
35910;BME280;22004;49.120;-0.200;2023-03-19T08:24:32;101514.91;;;11.11;72.69
35910;BME280;22004;49.120;-0.200;2023-03-19T08:26:57;101531.38;;;11.17;73.39
35910;BME280;22004;49.120;-0.200;2023-03-19T08:29:23;101524.31;;;11.07;72.74
35910;BME280;22004;49.120;-0.200;2023-03-19T08:31:52;101518.63;;;11.10;72.30
35910;BME280;22004;49.120;-0.200;2023-03-19T08:34:17;101522.44;;;10.92;72.20
35910;BME280;22004;49.120;-0.200;2023-03-19T08:36:42;101518.94;;;10.99;71.29
35910;BME280;22004;49.120;-0.200;2023-03-19T08:39:08;101535.03;;;10.91;72.70
35910;BME280;22004;49.120;-0.200;2023-03-19T08:41:33;101535.19;;;10.98;72.40
35910;BME280;22004;49.120;-0.200;2023-03-19T08:43:59;101533.34;;;10.98;73.20
35910;BME280;22004;49.120;-0.200;2023-03-19T08:46:25;101529.97;;;10.80;71.54
35910;BME280;22004;49.120;-0.200;2023-03-19T08:48:52;101538.94;;;11.13;72.39
35910;BME280;22004;49.120;-0.200;2023-03-19T08:51:17;101544.03;;;12.14;69.68
35910;BME280;22004;49.120;-0.200;2023-03-19T08:53:43;101534.28;;;13.31;65.11
35910;BME280;22004;49.120;-0.200;2023-03-19T08:56:08;101530.09;;;12.58;66.01
35910;BME280;22004;49.120;-0.200;2023-03-19T08:58:34;101537.81;;;11.40;70.08
35910;BME280;22004;49.120;-0.200;2023-03-19T09:01:01;101534.38;;;11.13;70.04
35910;BME280;22004;49.120;-0.200;2023-03-19T09:03:27;101548.88;;;11.37;70.24
35910;BME280;22004;49.120;-0.200;2023-03-19T09:05:52;101547.91;;;11.46;71.21
35910;BME280;22004;49.120;-0.200;2023-03-19T09:08:18;101554.22;;;11.12;71.04
35910;BME280;22004;49.120;-0.200;2023-03-19T09:10:43;101558.13;;;11.26;70.45
35910;BME280;22004;49.120;-0.200;2023-03-19T09:13:08;101557.59;;;11.23;71.48
35910;BME280;22004;49.120;-0.200;2023-03-19T09:15:34;101567.63;;;10.96;71.22
35910;BME280;22004;49.120;-0.200;2023-03-19T09:17:59;101573.22;;;11.19;71.31
35910;BME280;22004;49.120;-0.200;2023-03-19T09:20:25;101577.31;;;11.39;70.21
35910;BME280;22004;49.120;-0.200;2023-03-19T09:22:51;101578.31;;;11.47;70.83
35910;BME280;22004;49.120;-0.200;2023-03-19T09:25:16;101583.38;;;11.50;70.61
35910;BME280;22004;49.120;-0.200;2023-03-19T09:27:41;101584.34;;;11.24;70.33
35910;BME280;22004;49.120;-0.200;2023-03-19T09:30:07;101589.38;;;11.35;70.73
35910;BME280;22004;49.120;-0.200;2023-03-19T09:32:35;101592.41;;;11.24;70.87
35910;BME280;22004;49.120;-0.200;2023-03-19T09:35:01;101593.25;;;10.82;70.25
35910;BME280;22004;49.120;-0.200;2023-03-19T09:37:26;101600.97;;;11.36;69.94
35910;BME280;22004;49.120;-0.200;2023-03-19T09:39:52;101597.63;;;11.34;69.47
35910;BME280;22004;49.120;-0.200;2023-03-19T09:45:11;101607.28;;;11.10;70.37
35910;BME280;22004;49.120;-0.200;2023-03-19T09:47:38;101596.72;;;11.09;69.82
35910;BME280;22004;49.120;-0.200;2023-03-19T09:50:11;101603.34;;;10.88;68.60
35910;BME280;22004;49.120;-0.200;2023-03-19T09:52:57;101601.25;;;11.17;70.21
35910;BME280;22004;49.120;-0.200;2023-03-19T09:55:29;101610.38;;;11.32;68.88
35910;BME280;22004;49.120;-0.200;2023-03-19T09:58:20;101618.66;;;11.63;68.88
35910;BME280;22004;49.120;-0.200;2023-03-19T10:00:48;101614.31;;;11.54;69.01
35910;BME280;22004;49.120;-0.200;2023-03-19T10:06:01;101615.78;;;10.55;66.37
35910;BME280;22004;49.120;-0.200;2023-03-19T10:16:57;101639.19;;;11.13;69.48
35910;BME280;22004;49.120;-0.200;2023-03-19T10:19:54;101638.84;;;11.08;66.59
35910;BME280;22004;49.120;-0.200;2023-03-19T10:22:27;101636.63;;;11.04;67.29
35910;BME280;22004;49.120;-0.200;2023-03-19T10:24:55;101634.53;;;11.24;68.26
35910;BME280;22004;49.120;-0.200;2023-03-19T10:27:25;101639.69;;;11.59;67.93
35910;BME280;22004;49.120;-0.200;2023-03-19T10:29:52;101632.28;;;11.61;68.07
35910;BME280;22004;49.120;-0.200;2023-03-19T10:32:19;101635.28;;;11.50;68.03
35910;BME280;22004;49.120;-0.200;2023-03-19T10:34:50;101635.22;;;12.01;67.80
35910;BME280;22004;49.120;-0.200;2023-03-19T10:39:48;101639.25;;;12.21;65.62
35910;BME280;22004;49.120;-0.200;2023-03-19T10:44:57;101645.72;;;12.76;64.41
35910;BME280;22004;49.120;-0.200;2023-03-19T10:47:25;101648.13;;;12.54;64.95
35910;BME280;22004;49.120;-0.200;2023-03-19T10:49:51;101642.44;;;11.92;66.83
35910;BME280;22004;49.120;-0.200;2023-03-19T10:52:27;101651.88;;;11.29;67.01
35910;BME280;22004;49.120;-0.200;2023-03-19T10:54:55;101662.63;;;11.37;68.44
35910;BME280;22004;49.120;-0.200;2023-03-19T10:57:26;101657.84;;;11.65;67.04
35910;BME280;22004;49.120;-0.200;2023-03-19T10:59:52;101662.59;;;11.80;65.25
35910;BME280;22004;49.120;-0.200;2023-03-19T11:02:20;101663.13;;;12.16;65.69
35910;BME280;22004;49.120;-0.200;2023-03-19T11:04:47;101659.06;;;11.87;62.01
35910;BME280;22004;49.120;-0.200;2023-03-19T11:07:17;101659.03;;;12.61;64.89
35910;BME280;22004;49.120;-0.200;2023-03-19T11:09:46;101652.44;;;12.88;62.24
35910;BME280;22004;49.120;-0.200;2023-03-19T11:12:20;101661.19;;;12.82;61.72
35910;BME280;22004;49.120;-0.200;2023-03-19T11:14:49;101661.28;;;12.25;66.11
35910;BME280;22004;49.120;-0.200;2023-03-19T11:19:53;101669.91;;;12.92;63.58
35910;BME280;22004;49.120;-0.200;2023-03-19T11:22:22;101665.66;;;13.06;63.05
35910;BME280;22004;49.120;-0.200;2023-03-19T11:25:00;101671.63;;;12.77;63.28
35910;BME280;22004;49.120;-0.200;2023-03-19T11:27:31;101674.06;;;13.11;62.13
35910;BME280;22004;49.120;-0.200;2023-03-19T11:30:00;101678.56;;;12.71;61.09
35910;BME280;22004;49.120;-0.200;2023-03-19T11:35:28;101680.41;;;12.71;61.35
35910;BME280;22004;49.120;-0.200;2023-03-19T11:40:41;101691.25;;;11.47;63.80
35910;BME280;22004;49.120;-0.200;2023-03-19T11:46:19;101685.84;;;12.46;61.03
35910;BME280;22004;49.120;-0.200;2023-03-19T11:57:56;101694.06;;;11.37;65.63
35910;BME280;22004;49.120;-0.200;2023-03-19T12:05:59;101702.63;;;11.83;64.80
35910;BME280;22004;49.120;-0.200;2023-03-19T12:08:49;101690.38;;;12.13;61.94
35910;BME280;22004;49.120;-0.200;2023-03-19T12:11:26;101691.00;;;11.74;64.06
35910;BME280;22004;49.120;-0.200;2023-03-19T12:16:45;101700.69;;;13.14;60.83
35910;BME280;22004;49.120;-0.200;2023-03-19T12:27:27;101701.69;;;13.13;60.01
35910;BME280;22004;49.120;-0.200;2023-03-19T12:35:20;101703.81;;;12.70;61.18
35910;BME280;22004;49.120;-0.200;2023-03-19T12:37:57;101702.19;;;12.28;62.42
35910;BME280;22004;49.120;-0.200;2023-03-19T12:40:33;101715.22;;;11.82;63.25
35910;BME280;22004;49.120;-0.200;2023-03-19T12:43:05;101720.38;;;11.59;62.73
35910;BME280;22004;49.120;-0.200;2023-03-19T12:45:41;101723.84;;;12.76;60.67
35910;BME280;22004;49.120;-0.200;2023-03-19T12:48:20;101724.81;;;12.91;58.04
35910;BME280;22004;49.120;-0.200;2023-03-19T12:50:51;101715.97;;;12.25;60.35
35910;BME280;22004;49.120;-0.200;2023-03-19T12:56:35;101718.63;;;12.58;61.67
35910;BME280;22004;49.120;-0.200;2023-03-19T12:59:15;101718.00;;;12.31;62.68
35910;BME280;22004;49.120;-0.200;2023-03-19T13:01:50;101710.00;;;11.30;62.46
35910;BME280;22004;49.120;-0.200;2023-03-19T13:04:34;101721.03;;;12.45;63.23
35910;BME280;22004;49.120;-0.200;2023-03-19T13:07:10;101723.19;;;12.74;60.25
35910;BME280;22004;49.120;-0.200;2023-03-19T13:09:49;101715.25;;;12.80;58.45
35910;BME280;22004;49.120;-0.200;2023-03-19T13:12:21;101718.66;;;12.50;61.27
35910;BME280;22004;49.120;-0.200;2023-03-19T13:15:02;101723.34;;;12.07;61.00
35910;BME280;22004;49.120;-0.200;2023-03-19T13:20:09;101719.97;;;11.88;61.11
35910;BME280;22004;49.120;-0.200;2023-03-19T13:22:46;101731.09;;;12.10;63.23
35910;BME280;22004;49.120;-0.200;2023-03-19T13:25:16;101721.84;;;12.70;60.45
35910;BME280;22004;49.120;-0.200;2023-03-19T13:27:51;101730.09;;;12.60;61.09
35910;BME280;22004;49.120;-0.200;2023-03-19T13:30:19;101729.91;;;11.96;59.30
35910;BME280;22004;49.120;-0.200;2023-03-19T13:33:12;101728.75;;;12.48;60.86
35910;BME280;22004;49.120;-0.200;2023-03-19T13:35:43;101724.22;;;12.15;59.03
35910;BME280;22004;49.120;-0.200;2023-03-19T13:43:03;101729.94;;;12.53;59.70
35910;BME280;22004;49.120;-0.200;2023-03-19T13:45:33;101719.31;;;12.11;59.99
35910;BME280;22004;49.120;-0.200;2023-03-19T13:50:59;101718.16;;;12.22;62.75
35910;BME280;22004;49.120;-0.200;2023-03-19T13:53:33;101710.94;;;12.38;60.11
35910;BME280;22004;49.120;-0.200;2023-03-19T13:56:09;101722.69;;;12.46;60.88
35910;BME280;22004;49.120;-0.200;2023-03-19T13:58:48;101719.31;;;12.11;61.08
35910;BME280;22004;49.120;-0.200;2023-03-19T14:04:01;101727.78;;;11.65;61.41